sensor_id;sensor_type;location;lat;lon;timestamp;P1;durP1;ratioP1;P2;durP2;ratioP2
75191;SDS011;63771;52.580;9.734;2023-10-13T00:00:55;14.93;;;8.20;;
75191;SDS011;63771;52.580;9.734;2023-10-13T00:03:22;18.48;;;9.38;;
75191;SDS011;63771;52.580;9.734;2023-10-13T00:05:48;16.00;;;9.55;;
75191;SDS011;63771;52.580;9.734;2023-10-13T00:08:17;16.45;;;8.63;;
75191;SDS011;63771;52.580;9.734;2023-10-13T00:10:43;13.88;;;9.85;;
75191;SDS011;63771;52.580;9.734;2023-10-13T00:13:08;14.35;;;8.27;;
75191;SDS011;63771;52.580;9.734;2023-10-13T00:15:44;17.73;;;9.05;;
75191;SDS011;63771;52.580;9.734;2023-10-13T00:18:27;12.32;;;8.25;;
75191;SDS011;63771;52.580;9.734;2023-10-13T00:21:02;16.17;;;8.10;;
75191;SDS011;63771;52.580;9.734;2023-10-13T00:23:41;13.27;;;8.73;;
75191;SDS011;63771;52.580;9.734;2023-10-13T00:26:20;13.65;;;8.43;;
75191;SDS011;63771;52.580;9.734;2023-10-13T00:28:52;12.50;;;7.72;;
75191;SDS011;63771;52.580;9.734;2023-10-13T00:31:24;11.57;;;8.57;;
75191;SDS011;63771;52.580;9.734;2023-10-13T00:33:53;10.23;;;7.20;;
75191;SDS011;63771;52.580;9.734;2023-10-13T00:36:20;10.30;;;8.90;;
75191;SDS011;63771;52.580;9.734;2023-10-13T00:38:46;10.45;;;7.65;;
75191;SDS011;63771;52.580;9.734;2023-10-13T00:41:17;9.05;;;6.95;;
75191;SDS011;63771;52.580;9.734;2023-10-13T00:43:58;12.35;;;7.95;;
75191;SDS011;63771;52.580;9.734;2023-10-13T00:46:32;13.40;;;8.35;;
75191;SDS011;63771;52.580;9.734;2023-10-13T00:48:59;11.95;;;7.82;;
75191;SDS011;63771;52.580;9.734;2023-10-13T00:51:26;11.65;;;7.68;;
75191;SDS011;63771;52.580;9.734;2023-10-13T00:54:03;9.43;;;7.40;;
75191;SDS011;63771;52.580;9.734;2023-10-13T00:56:37;9.30;;;7.40;;
75191;SDS011;63771;52.580;9.734;2023-10-13T00:59:08;12.13;;;8.10;;
75191;SDS011;63771;52.580;9.734;2023-10-13T01:01:35;9.23;;;6.82;;
75191;SDS011;63771;52.580;9.734;2023-10-13T01:04:01;8.80;;;6.72;;
75191;SDS011;63771;52.580;9.734;2023-10-13T01:06:30;9.43;;;7.22;;
75191;SDS011;63771;52.580;9.734;2023-10-13T01:11:49;10.77;;;7.65;;
75191;SDS011;63771;52.580;9.734;2023-10-13T01:14:19;13.25;;;8.20;;
75191;SDS011;63771;52.580;9.734;2023-10-13T01:16:46;10.63;;;7.38;;
75191;SDS011;63771;52.580;9.734;2023-10-13T01:19:15;11.32;;;7.60;;
75191;SDS011;63771;52.580;9.734;2023-10-13T01:21:48;8.75;;;6.78;;
75191;SDS011;63771;52.580;9.734;2023-10-13T01:24:14;12.75;;;7.68;;
75191;SDS011;63771;52.580;9.734;2023-10-13T01:26:42;12.55;;;8.25;;
75191;SDS011;63771;52.580;9.734;2023-10-13T01:29:08;11.33;;;8.47;;
75191;SDS011;63771;52.580;9.734;2023-10-13T01:31:40;10.20;;;6.90;;
75191;SDS011;63771;52.580;9.734;2023-10-13T01:34:10;10.93;;;8.25;;
75191;SDS011;63771;52.580;9.734;2023-10-13T01:39:22;17.63;;;8.35;;
75191;SDS011;63771;52.580;9.734;2023-10-13T01:41:53;11.55;;;8.57;;
75191;SDS011;63771;52.580;9.734;2023-10-13T01:44:20;14.50;;;9.52;;
75191;SDS011;63771;52.580;9.734;2023-10-13T01:47:01;14.50;;;9.45;;
75191;SDS011;63771;52.580;9.734;2023-10-13T01:49:31;12.75;;;8.85;;
75191;SDS011;63771;52.580;9.734;2023-10-13T01:52:06;15.85;;;9.30;;
75191;SDS011;63771;52.580;9.734;2023-10-13T01:54:33;14.02;;;9.27;;
75191;SDS011;63771;52.580;9.734;2023-10-13T01:56:58;15.18;;;8.60;;
75191;SDS011;63771;52.580;9.734;2023-10-13T01:59:25;17.40;;;10.10;;
75191;SDS011;63771;52.580;9.734;2023-10-13T02:01:51;15.07;;;9.50;;
75191;SDS011;63771;52.580;9.734;2023-10-13T02:04:20;16.40;;;10.30;;
75191;SDS011;63771;52.580;9.734;2023-10-13T02:06:46;14.10;;;9.65;;
75191;SDS011;63771;52.580;9.734;2023-10-13T02:09:11;14.65;;;10.23;;
75191;SDS011;63771;52.580;9.734;2023-10-13T02:11:50;17.08;;;10.32;;
75191;SDS011;63771;52.580;9.734;2023-10-13T02:14:23;16.45;;;11.13;;
75191;SDS011;63771;52.580;9.734;2023-10-13T02:16:50;14.00;;;10.10;;
75191;SDS011;63771;52.580;9.734;2023-10-13T02:19:20;14.65;;;10.98;;
75191;SDS011;63771;52.580;9.734;2023-10-13T02:21:46;17.98;;;10.88;;
75191;SDS011;63771;52.580;9.734;2023-10-13T02:24:23;15.27;;;10.65;;
75191;SDS011;63771;52.580;9.734;2023-10-13T02:26:54;18.20;;;12.27;;
75191;SDS011;63771;52.580;9.734;2023-10-13T02:29:21;18.17;;;10.82;;
75191;SDS011;63771;52.580;9.734;2023-10-13T02:31:47;18.65;;;12.73;;
75191;SDS011;63771;52.580;9.734;2023-10-13T02:34:19;18.27;;;12.90;;
75191;SDS011;63771;52.580;9.734;2023-10-13T02:36:47;17.48;;;12.30;;
75191;SDS011;63771;52.580;9.734;2023-10-13T02:39:16;17.85;;;12.70;;
75191;SDS011;63771;52.580;9.734;2023-10-13T02:41:42;18.15;;;11.43;;
75191;SDS011;63771;52.580;9.734;2023-10-13T02:44:13;19.42;;;13.20;;
75191;SDS011;63771;52.580;9.734;2023-10-13T02:46:52;19.05;;;12.35;;
75191;SDS011;63771;52.580;9.734;2023-10-13T02:49:20;20.38;;;13.02;;
75191;SDS011;63771;52.580;9.734;2023-10-13T02:51:46;18.85;;;13.48;;
75191;SDS011;63771;52.580;9.734;2023-10-13T02:54:12;20.33;;;12.93;;
75191;SDS011;63771;52.580;9.734;2023-10-13T02:56:43;19.38;;;13.30;;
75191;SDS011;63771;52.580;9.734;2023-10-13T02:59:14;21.65;;;13.65;;
75191;SDS011;63771;52.580;9.734;2023-10-13T03:01:40;21.08;;;13.48;;
75191;SDS011;63771;52.580;9.734;2023-10-13T03:04:05;21.45;;;13.70;;
75191;SDS011;63771;52.580;9.734;2023-10-13T03:06:38;20.67;;;12.68;;
75191;SDS011;63771;52.580;9.734;2023-10-13T03:09:09;20.70;;;13.60;;
75191;SDS011;63771;52.580;9.734;2023-10-13T03:11:44;18.45;;;13.23;;
75191;SDS011;63771;52.580;9.734;2023-10-13T03:16:57;23.05;;;13.48;;
75191;SDS011;63771;52.580;9.734;2023-10-13T03:19:45;18.30;;;13.27;;
75191;SDS011;63771;52.580;9.734;2023-10-13T03:22:19;21.55;;;13.95;;
75191;SDS011;63771;52.580;9.734;2023-10-13T03:24:55;23.85;;;14.63;;
75191;SDS011;63771;52.580;9.734;2023-10-13T03:27:24;20.70;;;13.20;;
75191;SDS011;63771;52.580;9.734;2023-10-13T03:30:04;20.95;;;15.13;;
75191;SDS011;63771;52.580;9.734;2023-10-13T03:32:35;19.63;;;12.88;;
75191;SDS011;63771;52.580;9.734;2023-10-13T03:35:07;19.30;;;13.32;;
75191;SDS011;63771;52.580;9.734;2023-10-13T03:37:36;20.45;;;14.27;;
75191;SDS011;63771;52.580;9.734;2023-10-13T03:40:04;20.88;;;13.18;;
75191;SDS011;63771;52.580;9.734;2023-10-13T03:42:46;20.55;;;14.00;;
75191;SDS011;63771;52.580;9.734;2023-10-13T03:45:51;20.02;;;13.68;;
75191;SDS011;63771;52.580;9.734;2023-10-13T03:48:33;21.13;;;12.95;;
75191;SDS011;63771;52.580;9.734;2023-10-13T03:51:05;20.10;;;13.55;;
75191;SDS011;63771;52.580;9.734;2023-10-13T03:53:40;20.70;;;14.73;;
75191;SDS011;63771;52.580;9.734;2023-10-13T03:56:19;20.30;;;13.88;;
75191;SDS011;63771;52.580;9.734;2023-10-13T03:58:51;19.25;;;14.85;;
75191;SDS011;63771;52.580;9.734;2023-10-13T04:01:19;20.58;;;12.35;;
75191;SDS011;63771;52.580;9.734;2023-10-13T04:03:50;17.88;;;13.95;;
75191;SDS011;63771;52.580;9.734;2023-10-13T04:06:40;16.65;;;12.45;;
75191;SDS011;63771;52.580;9.734;2023-10-13T04:11:59;16.58;;;12.93;;
75191;SDS011;63771;52.580;9.734;2023-10-13T04:14:36;19.10;;;13.38;;
75191;SDS011;63771;52.580;9.734;2023-10-13T04:17:21;18.17;;;14.18;;
75191;SDS011;63771;52.580;9.734;2023-10-13T04:19:54;17.20;;;12.43;;
75191;SDS011;63771;52.580;9.734;2023-10-13T04:28:02;16.38;;;11.70;;
75191;SDS011;63771;52.580;9.734;2023-10-13T04:33:18;16.65;;;12.13;;
75191;SDS011;63771;52.580;9.734;2023-10-13T04:38:38;14.02;;;10.95;;
75191;SDS011;63771;52.580;9.734;2023-10-13T04:41:38;12.70;;;9.20;;
75191;SDS011;63771;52.580;9.734;2023-10-13T04:44:08;13.20;;;10.25;;
75191;SDS011;63771;52.580;9.734;2023-10-13T04:46:56;18.58;;;10.52;;
75191;SDS011;63771;52.580;9.734;2023-10-13T04:49:26;16.60;;;11.25;;
75191;SDS011;63771;52.580;9.734;2023-10-13T04:52:07;14.45;;;11.00;;
75191;SDS011;63771;52.580;9.734;2023-10-13T04:54:33;15.00;;;11.48;;
75191;SDS011;63771;52.580;9.734;2023-10-13T04:57:22;12.43;;;10.52;;
75191;SDS011;63771;52.580;9.734;2023-10-13T04:59:59;16.38;;;11.68;;
75191;SDS011;63771;52.580;9.734;2023-10-13T05:02:35;14.35;;;11.38;;
75191;SDS011;63771;52.580;9.734;2023-10-13T05:07:55;17.08;;;13.05;;
75191;SDS011;63771;52.580;9.734;2023-10-13T05:10:39;15.75;;;11.10;;
75191;SDS011;63771;52.580;9.734;2023-10-13T05:13:23;17.13;;;10.95;;
75191;SDS011;63771;52.580;9.734;2023-10-13T05:16:07;18.48;;;12.23;;
75191;SDS011;63771;52.580;9.734;2023-10-13T05:18:51;16.02;;;12.00;;
75191;SDS011;63771;52.580;9.734;2023-10-13T05:21:34;17.70;;;12.32;;
75191;SDS011;63771;52.580;9.734;2023-10-13T05:24:19;17.70;;;11.52;;
75191;SDS011;63771;52.580;9.734;2023-10-13T05:27:02;14.25;;;11.45;;
75191;SDS011;63771;52.580;9.734;2023-10-13T05:29:47;16.17;;;11.38;;
75191;SDS011;63771;52.580;9.734;2023-10-13T05:32:32;15.70;;;11.32;;
75191;SDS011;63771;52.580;9.734;2023-10-13T05:35:16;17.10;;;11.45;;
75191;SDS011;63771;52.580;9.734;2023-10-13T05:38:00;16.02;;;11.38;;
75191;SDS011;63771;52.580;9.734;2023-10-13T05:40:54;15.48;;;10.98;;
75191;SDS011;63771;52.580;9.734;2023-10-13T05:43:39;17.48;;;12.07;;
75191;SDS011;63771;52.580;9.734;2023-10-13T05:46:23;19.80;;;10.40;;
75191;SDS011;63771;52.580;9.734;2023-10-13T05:48:52;18.02;;;11.55;;
75191;SDS011;63771;52.580;9.734;2023-10-13T05:51:27;15.73;;;11.43;;
75191;SDS011;63771;52.580;9.734;2023-10-13T05:54:12;14.85;;;10.50;;
75191;SDS011;63771;52.580;9.734;2023-10-13T05:59:30;18.85;;;12.05;;
75191;SDS011;63771;52.580;9.734;2023-10-13T06:02:16;18.63;;;11.95;;
75191;SDS011;63771;52.580;9.734;2023-10-13T06:05:04;19.00;;;11.75;;
75191;SDS011;63771;52.580;9.734;2023-10-13T06:07:49;16.73;;;12.93;;
75191;SDS011;63771;52.580;9.734;2023-10-13T06:10:34;22.85;;;13.65;;
75191;SDS011;63771;52.580;9.734;2023-10-13T06:13:18;16.85;;;11.57;;
75191;SDS011;63771;52.580;9.734;2023-10-13T06:16:16;19.25;;;12.18;;
75191;SDS011;63771;52.580;9.734;2023-10-13T06:19:01;14.77;;;10.60;;
75191;SDS011;63771;52.580;9.734;2023-10-13T06:21:45;20.15;;;10.35;;
75191;SDS011;63771;52.580;9.734;2023-10-13T06:24:29;19.35;;;10.23;;
75191;SDS011;63771;52.580;9.734;2023-10-13T06:27:14;14.15;;;9.50;;
75191;SDS011;63771;52.580;9.734;2023-10-13T06:29:58;13.85;;;9.25;;
75191;SDS011;63771;52.580;9.734;2023-10-13T06:32:25;11.02;;;8.70;;
75191;SDS011;63771;52.580;9.734;2023-10-13T06:34:55;14.23;;;7.80;;
75191;SDS011;63771;52.580;9.734;2023-10-13T06:37:32;13.60;;;8.45;;
75191;SDS011;63771;52.580;9.734;2023-10-13T06:40:02;11.43;;;9.00;;
75191;SDS011;63771;52.580;9.734;2023-10-13T06:42:44;14.27;;;8.98;;
75191;SDS011;63771;52.580;9.734;2023-10-13T06:45:09;13.00;;;9.47;;
75191;SDS011;63771;52.580;9.734;2023-10-13T06:47:36;15.98;;;10.43;;
75191;SDS011;63771;52.580;9.734;2023-10-13T06:50:14;20.33;;;12.40;;
75191;SDS011;63771;52.580;9.734;2023-10-13T06:52:44;19.80;;;11.18;;
75191;SDS011;63771;52.580;9.734;2023-10-13T06:55:10;22.85;;;11.95;;
75191;SDS011;63771;52.580;9.734;2023-10-13T06:57:59;16.83;;;10.85;;
75191;SDS011;63771;52.580;9.734;2023-10-13T07:00:25;16.97;;;10.77;;
75191;SDS011;63771;52.580;9.734;2023-10-13T07:02:54;18.55;;;9.90;;
75191;SDS011;63771;52.580;9.734;2023-10-13T07:05:30;16.65;;;9.55;;
75191;SDS011;63771;52.580;9.734;2023-10-13T07:07:59;15.77;;;8.68;;
75191;SDS011;63771;52.580;9.734;2023-10-13T07:10:25;16.45;;;10.05;;
75191;SDS011;63771;52.580;9.734;2023-10-13T07:12:55;11.73;;;8.30;;
75191;SDS011;63771;52.580;9.734;2023-10-13T07:15:24;12.52;;;7.55;;
75191;SDS011;63771;52.580;9.734;2023-10-13T07:17:52;13.70;;;8.02;;
75191;SDS011;63771;52.580;9.734;2023-10-13T07:20:24;15.48;;;8.05;;
75191;SDS011;63771;52.580;9.734;2023-10-13T07:22:52;14.85;;;9.30;;
75191;SDS011;63771;52.580;9.734;2023-10-13T07:25:27;12.55;;;8.93;;
75191;SDS011;63771;52.580;9.734;2023-10-13T07:27:57;15.32;;;8.95;;
75191;SDS011;63771;52.580;9.734;2023-10-13T07:30:23;21.05;;;10.68;;
75191;SDS011;63771;52.580;9.734;2023-10-13T07:35:18;25.73;;;14.30;;
75191;SDS011;63771;52.580;9.734;2023-10-13T07:37:46;20.25;;;13.60;;
75191;SDS011;63771;52.580;9.734;2023-10-13T07:40:17;14.65;;;10.23;;
75191;SDS011;63771;52.580;9.734;2023-10-13T07:42:55;12.57;;;9.13;;
75191;SDS011;63771;52.580;9.734;2023-10-13T07:45:35;13.23;;;7.50;;
75191;SDS011;63771;52.580;9.734;2023-10-13T07:48:06;7.75;;;6.25;;
75191;SDS011;63771;52.580;9.734;2023-10-13T07:50:45;8.85;;;6.00;;
75191;SDS011;63771;52.580;9.734;2023-10-13T07:53:11;9.10;;;5.55;;
75191;SDS011;63771;52.580;9.734;2023-10-13T07:55:49;7.35;;;5.43;;
75191;SDS011;63771;52.580;9.734;2023-10-13T07:58:21;7.07;;;5.28;;
75191;SDS011;63771;52.580;9.734;2023-10-13T08:00:53;9.52;;;5.18;;
75191;SDS011;63771;52.580;9.734;2023-10-13T08:03:31;5.88;;;4.68;;
75191;SDS011;63771;52.580;9.734;2023-10-13T08:06:00;6.93;;;5.20;;
75191;SDS011;63771;52.580;9.734;2023-10-13T08:08:32;8.23;;;5.60;;
75191;SDS011;63771;52.580;9.734;2023-10-13T08:11:04;7.43;;;4.63;;
75191;SDS011;63771;52.580;9.734;2023-10-13T08:13:52;8.13;;;4.75;;
75191;SDS011;63771;52.580;9.734;2023-10-13T08:16:19;6.53;;;5.00;;
75191;SDS011;63771;52.580;9.734;2023-10-13T08:18:49;9.05;;;5.75;;
75191;SDS011;63771;52.580;9.734;2023-10-13T08:21:18;5.70;;;5.20;;
75191;SDS011;63771;52.580;9.734;2023-10-13T08:23:56;6.15;;;5.20;;
75191;SDS011;63771;52.580;9.734;2023-10-13T08:26:28;6.03;;;5.40;;
75191;SDS011;63771;52.580;9.734;2023-10-13T08:29:12;5.35;;;4.88;;
75191;SDS011;63771;52.580;9.734;2023-10-13T08:31:43;6.18;;;5.40;;
75191;SDS011;63771;52.580;9.734;2023-10-13T08:34:14;8.75;;;5.47;;
75191;SDS011;63771;52.580;9.734;2023-10-13T08:36:48;10.48;;;6.25;;
75191;SDS011;63771;52.580;9.734;2023-10-13T08:39:13;8.68;;;5.95;;
75191;SDS011;63771;52.580;9.734;2023-10-13T08:42:07;10.15;;;6.30;;
75191;SDS011;63771;52.580;9.734;2023-10-13T08:44:44;6.25;;;5.63;;
75191;SDS011;63771;52.580;9.734;2023-10-13T08:47:17;6.53;;;4.93;;
75191;SDS011;63771;52.580;9.734;2023-10-13T08:49:49;8.27;;;5.88;;
75191;SDS011;63771;52.580;9.734;2023-10-13T08:52:35;6.45;;;5.35;;
75191;SDS011;63771;52.580;9.734;2023-10-13T08:55:11;5.72;;;4.20;;
75191;SDS011;63771;52.580;9.734;2023-10-13T09:00:37;4.63;;;3.72;;
75191;SDS011;63771;52.580;9.734;2023-10-13T09:03:33;5.88;;;3.28;;
75191;SDS011;63771;52.580;9.734;2023-10-13T09:06:06;7.25;;;4.40;;
75191;SDS011;63771;52.580;9.734;2023-10-13T09:08:39;4.38;;;3.40;;
75191;SDS011;63771;52.580;9.734;2023-10-13T09:11:43;3.58;;;3.28;;
75191;SDS011;63771;52.580;9.734;2023-10-13T09:14:14;3.63;;;3.33;;
75191;SDS011;63771;52.580;9.734;2023-10-13T09:17:02;4.32;;;3.53;;
75191;SDS011;63771;52.580;9.734;2023-10-13T09:19:47;4.80;;;3.63;;
75191;SDS011;63771;52.580;9.734;2023-10-13T09:22:19;3.88;;;3.22;;
75191;SDS011;63771;52.580;9.734;2023-10-13T09:25:03;3.47;;;3.17;;
75191;SDS011;63771;52.580;9.734;2023-10-13T09:27:30;4.35;;;3.13;;
75191;SDS011;63771;52.580;9.734;2023-10-13T09:30:03;3.88;;;3.05;;
75191;SDS011;63771;52.580;9.734;2023-10-13T09:32:34;2.78;;;2.58;;
75191;SDS011;63771;52.580;9.734;2023-10-13T09:35:11;5.43;;;3.13;;
75191;SDS011;63771;52.580;9.734;2023-10-13T09:37:41;5.15;;;2.83;;
75191;SDS011;63771;52.580;9.734;2023-10-13T09:40:07;3.88;;;3.45;;
75191;SDS011;63771;52.580;9.734;2023-10-13T09:42:50;4.75;;;3.10;;
75191;SDS011;63771;52.580;9.734;2023-10-13T09:45:15;5.57;;;2.70;;
75191;SDS011;63771;52.580;9.734;2023-10-13T09:47:43;5.68;;;2.50;;
75191;SDS011;63771;52.580;9.734;2023-10-13T09:50:17;4.50;;;3.22;;
75191;SDS011;63771;52.580;9.734;2023-10-13T09:52:50;2.95;;;2.58;;
75191;SDS011;63771;52.580;9.734;2023-10-13T09:55:27;3.45;;;2.80;;
75191;SDS011;63771;52.580;9.734;2023-10-13T09:58:00;5.70;;;2.85;;
75191;SDS011;63771;52.580;9.734;2023-10-13T10:00:47;2.75;;;2.58;;
75191;SDS011;63771;52.580;9.734;2023-10-13T10:03:24;8.60;;;3.42;;
75191;SDS011;63771;52.580;9.734;2023-10-13T10:08:30;5.53;;;2.65;;
75191;SDS011;63771;52.580;9.734;2023-10-13T10:11:07;8.77;;;3.67;;
75191;SDS011;63771;52.580;9.734;2023-10-13T10:16:51;4.53;;;3.03;;
75191;SDS011;63771;52.580;9.734;2023-10-13T10:19:32;5.22;;;2.92;;
75191;SDS011;63771;52.580;9.734;2023-10-13T10:22:04;5.82;;;3.30;;
75191;SDS011;63771;52.580;9.734;2023-10-13T10:24:42;4.72;;;3.50;;
75191;SDS011;63771;52.580;9.734;2023-10-13T10:27:09;4.45;;;3.17;;
75191;SDS011;63771;52.580;9.734;2023-10-13T10:29:39;9.68;;;3.03;;
75191;SDS011;63771;52.580;9.734;2023-10-13T10:32:20;3.83;;;2.70;;
75191;SDS011;63771;52.580;9.734;2023-10-13T10:34:45;4.10;;;2.80;;
75191;SDS011;63771;52.580;9.734;2023-10-13T10:37:11;4.40;;;3.57;;
75191;SDS011;63771;52.580;9.734;2023-10-13T10:39:37;6.35;;;3.22;;
75191;SDS011;63771;52.580;9.734;2023-10-13T10:42:10;6.47;;;3.47;;
75191;SDS011;63771;52.580;9.734;2023-10-13T10:44:40;4.65;;;2.90;;
75191;SDS011;63771;52.580;9.734;2023-10-13T10:47:11;4.55;;;3.58;;
75191;SDS011;63771;52.580;9.734;2023-10-13T10:49:57;3.33;;;3.13;;
75191;SDS011;63771;52.580;9.734;2023-10-13T10:52:23;4.80;;;3.53;;
75191;SDS011;63771;52.580;9.734;2023-10-13T10:55:01;7.10;;;4.22;;
75191;SDS011;63771;52.580;9.734;2023-10-13T10:59:54;3.05;;;2.50;;
75191;SDS011;63771;52.580;9.734;2023-10-13T11:02:40;4.43;;;3.40;;
75191;SDS011;63771;52.580;9.734;2023-10-13T11:05:06;7.88;;;3.38;;
75191;SDS011;63771;52.580;9.734;2023-10-13T11:07:34;4.88;;;3.55;;
75191;SDS011;63771;52.580;9.734;2023-10-13T11:10:09;4.88;;;3.25;;
75191;SDS011;63771;52.580;9.734;2023-10-13T11:12:58;7.78;;;3.50;;
75191;SDS011;63771;52.580;9.734;2023-10-13T11:15:44;7.90;;;3.80;;
75191;SDS011;63771;52.580;9.734;2023-10-13T11:18:09;6.30;;;3.33;;
75191;SDS011;63771;52.580;9.734;2023-10-13T11:20:42;7.30;;;3.80;;
75191;SDS011;63771;52.580;9.734;2023-10-13T11:23:13;14.88;;;5.38;;
75191;SDS011;63771;52.580;9.734;2023-10-13T11:25:40;5.55;;;3.45;;
75191;SDS011;63771;52.580;9.734;2023-10-13T11:28:11;4.22;;;3.88;;
75191;SDS011;63771;52.580;9.734;2023-10-13T11:30:52;4.97;;;3.08;;
75191;SDS011;63771;52.580;9.734;2023-10-13T11:33:22;8.95;;;4.03;;
75191;SDS011;63771;52.580;9.734;2023-10-13T11:35:51;9.05;;;4.10;;
75191;SDS011;63771;52.580;9.734;2023-10-13T11:41:04;10.32;;;3.80;;
75191;SDS011;63771;52.580;9.734;2023-10-13T11:43:32;10.73;;;5.00;;
75191;SDS011;63771;52.580;9.734;2023-10-13T11:46:12;5.43;;;3.97;;
75191;SDS011;63771;52.580;9.734;2023-10-13T11:48:41;8.13;;;4.00;;
75191;SDS011;63771;52.580;9.734;2023-10-13T11:51:12;8.23;;;4.60;;
75191;SDS011;63771;52.580;9.734;2023-10-13T11:53:49;9.13;;;4.38;;
75191;SDS011;63771;52.580;9.734;2023-10-13T11:56:18;11.73;;;3.72;;
75191;SDS011;63771;52.580;9.734;2023-10-13T11:58:47;5.55;;;3.78;;
75191;SDS011;63771;52.580;9.734;2023-10-13T12:01:13;10.13;;;3.47;;
75191;SDS011;63771;52.580;9.734;2023-10-13T12:03:40;5.85;;;3.78;;
75191;SDS011;63771;52.580;9.734;2023-10-13T12:06:28;8.48;;;3.75;;
75191;SDS011;63771;52.580;9.734;2023-10-13T12:09:00;6.95;;;3.53;;
75191;SDS011;63771;52.580;9.734;2023-10-13T12:11:56;7.57;;;3.38;;
75191;SDS011;63771;52.580;9.734;2023-10-13T12:14:25;7.72;;;4.13;;
75191;SDS011;63771;52.580;9.734;2023-10-13T12:17:02;7.50;;;3.92;;
75191;SDS011;63771;52.580;9.734;2023-10-13T12:19:35;6.82;;;3.38;;
75191;SDS011;63771;52.580;9.734;2023-10-13T12:22:01;12.35;;;3.95;;
75191;SDS011;63771;52.580;9.734;2023-10-13T12:24:32;7.90;;;3.97;;
75191;SDS011;63771;52.580;9.734;2023-10-13T12:27:03;8.55;;;4.32;;
75191;SDS011;63771;52.580;9.734;2023-10-13T12:29:45;9.40;;;4.80;;
75191;SDS011;63771;52.580;9.734;2023-10-13T12:32:11;6.88;;;3.25;;
75191;SDS011;63771;52.580;9.734;2023-10-13T12:34:38;11.85;;;4.55;;
75191;SDS011;63771;52.580;9.734;2023-10-13T12:37:27;14.00;;;4.20;;
75191;SDS011;63771;52.580;9.734;2023-10-13T12:40:12;11.25;;;5.20;;
75191;SDS011;63771;52.580;9.734;2023-10-13T12:42:57;7.03;;;3.95;;
75191;SDS011;63771;52.580;9.734;2023-10-13T12:45:42;8.30;;;4.00;;
75191;SDS011;63771;52.580;9.734;2023-10-13T12:48:27;7.80;;;3.50;;
75191;SDS011;63771;52.580;9.734;2023-10-13T12:51:11;6.82;;;4.00;;
75191;SDS011;63771;52.580;9.734;2023-10-13T12:54:00;8.30;;;4.03;;
75191;SDS011;63771;52.580;9.734;2023-10-13T12:56:30;8.50;;;4.28;;
75191;SDS011;63771;52.580;9.734;2023-10-13T12:58:56;8.73;;;3.90;;
75191;SDS011;63771;52.580;9.734;2023-10-13T13:01:22;5.53;;;3.65;;
75191;SDS011;63771;52.580;9.734;2023-10-13T13:03:50;11.00;;;4.35;;
75191;SDS011;63771;52.580;9.734;2023-10-13T13:06:21;6.03;;;4.25;;
75191;SDS011;63771;52.580;9.734;2023-10-13T13:08:59;5.82;;;4.20;;
75191;SDS011;63771;52.580;9.734;2023-10-13T13:11:25;10.45;;;4.13;;
75191;SDS011;63771;52.580;9.734;2023-10-13T13:13:51;9.35;;;3.65;;
75191;SDS011;63771;52.580;9.734;2023-10-13T13:16:16;7.88;;;4.82;;
75191;SDS011;63771;52.580;9.734;2023-10-13T13:18:44;7.65;;;4.55;;
75191;SDS011;63771;52.580;9.734;2023-10-13T13:21:10;7.55;;;4.07;;
75191;SDS011;63771;52.580;9.734;2023-10-13T13:23:45;6.72;;;3.58;;
75191;SDS011;63771;52.580;9.734;2023-10-13T13:26:11;13.65;;;4.20;;
75191;SDS011;63771;52.580;9.734;2023-10-13T13:28:42;7.82;;;4.40;;
75191;SDS011;63771;52.580;9.734;2023-10-13T13:31:09;13.73;;;4.93;;
75191;SDS011;63771;52.580;9.734;2023-10-13T13:33:37;7.32;;;3.55;;
75191;SDS011;63771;52.580;9.734;2023-10-13T13:36:04;9.25;;;4.47;;
75191;SDS011;63771;52.580;9.734;2023-10-13T13:38:30;10.68;;;3.58;;
75191;SDS011;63771;52.580;9.734;2023-10-13T13:40:57;8.73;;;4.30;;
75191;SDS011;63771;52.580;9.734;2023-10-13T13:43:23;10.63;;;4.03;;
75191;SDS011;63771;52.580;9.734;2023-10-13T13:46:06;9.35;;;4.25;;
75191;SDS011;63771;52.580;9.734;2023-10-13T13:48:35;9.48;;;3.78;;
75191;SDS011;63771;52.580;9.734;2023-10-13T13:51:04;7.75;;;4.82;;
75191;SDS011;63771;52.580;9.734;2023-10-13T13:53:37;6.95;;;4.47;;
75191;SDS011;63771;52.580;9.734;2023-10-13T13:56:07;12.85;;;4.15;;
75191;SDS011;63771;52.580;9.734;2023-10-13T13:58:32;13.20;;;4.47;;
75191;SDS011;63771;52.580;9.734;2023-10-13T14:01:01;12.27;;;3.67;;
75191;SDS011;63771;52.580;9.734;2023-10-13T14:03:37;8.77;;;4.15;;
75191;SDS011;63771;52.580;9.734;2023-10-13T14:06:10;9.93;;;4.47;;
75191;SDS011;63771;52.580;9.734;2023-10-13T14:08:57;12.57;;;4.47;;
75191;SDS011;63771;52.580;9.734;2023-10-13T14:11:32;7.55;;;3.78;;
75191;SDS011;63771;52.580;9.734;2023-10-13T14:14:07;9.35;;;4.32;;
75191;SDS011;63771;52.580;9.734;2023-10-13T14:16:40;10.82;;;4.25;;
75191;SDS011;63771;52.580;9.734;2023-10-13T14:19:10;10.50;;;4.60;;
75191;SDS011;63771;52.580;9.734;2023-10-13T14:21:36;19.13;;;4.32;;
75191;SDS011;63771;52.580;9.734;2023-10-13T14:24:01;12.30;;;4.38;;
75191;SDS011;63771;52.580;9.734;2023-10-13T14:26:28;10.57;;;4.28;;
75191;SDS011;63771;52.580;9.734;2023-10-13T14:28:54;9.23;;;4.00;;
75191;SDS011;63771;52.580;9.734;2023-10-13T14:31:33;9.95;;;4.18;;
75191;SDS011;63771;52.580;9.734;2023-10-13T14:34:01;12.50;;;3.85;;
75191;SDS011;63771;52.580;9.734;2023-10-13T14:36:26;8.43;;;4.20;;
75191;SDS011;63771;52.580;9.734;2023-10-13T14:38:59;8.88;;;3.90;;
75191;SDS011;63771;52.580;9.734;2023-10-13T14:41:25;6.35;;;3.58;;
75191;SDS011;63771;52.580;9.734;2023-10-13T14:43:51;12.02;;;3.85;;
75191;SDS011;63771;52.580;9.734;2023-10-13T14:46:17;10.00;;;5.07;;
75191;SDS011;63771;52.580;9.734;2023-10-13T14:48:43;9.15;;;4.28;;
75191;SDS011;63771;52.580;9.734;2023-10-13T14:51:12;10.30;;;3.78;;
75191;SDS011;63771;52.580;9.734;2023-10-13T14:53:41;6.40;;;4.07;;
75191;SDS011;63771;52.580;9.734;2023-10-13T14:56:14;6.05;;;4.13;;
75191;SDS011;63771;52.580;9.734;2023-10-13T14:58:42;9.35;;;4.10;;
75191;SDS011;63771;52.580;9.734;2023-10-13T15:03:39;9.02;;;4.05;;
75191;SDS011;63771;52.580;9.734;2023-10-13T15:06:04;10.43;;;4.47;;
75191;SDS011;63771;52.580;9.734;2023-10-13T15:08:30;8.63;;;4.47;;
75191;SDS011;63771;52.580;9.734;2023-10-13T15:11:05;13.95;;;4.53;;
75191;SDS011;63771;52.580;9.734;2023-10-13T15:13:57;10.85;;;4.63;;
75191;SDS011;63771;52.580;9.734;2023-10-13T15:16:23;7.95;;;3.83;;
75191;SDS011;63771;52.580;9.734;2023-10-13T15:21:20;7.43;;;3.92;;
75191;SDS011;63771;52.580;9.734;2023-10-13T15:23:51;9.30;;;4.20;;
75191;SDS011;63771;52.580;9.734;2023-10-13T15:26:19;6.20;;;4.43;;
75191;SDS011;63771;52.580;9.734;2023-10-13T15:28:48;5.93;;;3.75;;
75191;SDS011;63771;52.580;9.734;2023-10-13T15:31:15;11.27;;;4.72;;
75191;SDS011;63771;52.580;9.734;2023-10-13T15:33:58;16.10;;;4.68;;
75191;SDS011;63771;52.580;9.734;2023-10-13T15:36:26;9.80;;;4.25;;
75191;SDS011;63771;52.580;9.734;2023-10-13T15:38:52;7.25;;;3.85;;
75191;SDS011;63771;52.580;9.734;2023-10-13T15:41:24;15.82;;;5.18;;
75191;SDS011;63771;52.580;9.734;2023-10-13T15:43:51;8.85;;;3.75;;
75191;SDS011;63771;52.580;9.734;2023-10-13T15:46:18;14.75;;;4.25;;
75191;SDS011;63771;52.580;9.734;2023-10-13T15:48:46;7.18;;;4.32;;
75191;SDS011;63771;52.580;9.734;2023-10-13T15:51:15;10.20;;;4.80;;
75191;SDS011;63771;52.580;9.734;2023-10-13T15:53:43;9.65;;;3.58;;
75191;SDS011;63771;52.580;9.734;2023-10-13T15:56:10;10.98;;;4.30;;
75191;SDS011;63771;52.580;9.734;2023-10-13T15:58:40;8.50;;;5.25;;
75191;SDS011;63771;52.580;9.734;2023-10-13T16:01:12;11.88;;;4.38;;